Terminal Aerodrome Forecast
Issued by NWS Rapid City, SD

Home | Current Version | Previous Version | Graphics & Text | Print | Product List | Glossary On
Versions: 1 2 3 4 5 6 7 8 9 10 11 12 13 14 15 16
000
FTUS43 KUNR 301130
TAFRAP
TAF
KRAP 301130Z 3012/0112 13007KT P6SM SKC
     FM301500 34025G35KT P6SM SCT050 SCT100
     FM010100 33010KT P6SM BKN100=

USA.gov is the U.S. government's official web portal to all federal, state and local government web resources and services.